Time;durP1;ratioP1;P1;durP2;ratioP2;P2;SDS_P1;SDS_P2;PMS_P1;PMS_P2;Temp;Humidity;BMP_temperature;BMP_pressure;BME280_temperature;BME280_humidity;BME280_pressure;Samples;Min_cycle;Max_cycle;Signal;HPM_P1;HPM_P2
2023/07/07 00:01:09;;;;;;;3.88;1.85;;;21.00;95.30;;;;;;7385402;19;20147;-73
2023/07/07 00:03:35;;;;;;;4.07;2.05;;;21.00;95.30;;;;;;7388121;19;20142;-72
2023/07/07 00:06:02;;;;;;;4.68;1.90;;;21.00;95.60;;;;;;7389349;19;20155;-72
2023/07/07 00:08:28;;;;;;;3.20;2.30;;;20.90;95.90;;;;;;7386462;19;20138;-73
2023/07/07 00:10:58;;;;;;;2.90;2.30;;;20.90;95.90;;;;;;7389600;19;20148;-72
2023/07/07 00:13:42;;;;;;;3.90;2.10;;;20.90;96.30;;;;;;7386570;19;20134;-73
2023/07/07 00:16:08;;;;;;;4.78;2.33;;;20.90;96.50;;;;;;7385327;19;20134;-72
2023/07/07 00:18:34;;;;;;;2.80;2.22;;;20.80;96.70;;;;;;7384732;19;20155;-73
2023/07/07 00:21:00;;;;;;;3.30;2.35;;;20.80;97.00;;;;;;7388833;19;20135;-73
2023/07/07 00:24:30;;;;;;;3.17;2.08;;;20.50;97.10;;;;;;7387131;19;20167;-73
2023/07/07 00:30:36;;;;;;;7.50;2.40;;;20.30;97.60;;;;;;7386506;19;20158;-72
2023/07/07 00:33:46;;;;;;;2.80;2.17;;;20.10;97.60;;;;;;7384118;19;20161;-73
2023/07/07 00:36:22;;;;;;;2.88;2.00;;;20.10;98.30;;;;;;7379163;19;20146;-73
2023/07/07 00:38:48;;;;;;;4.72;2.50;;;20.00;98.20;;;;;;7386188;19;20142;-72
2023/07/07 00:41:14;;;;;;;3.03;2.38;;;19.90;98.60;;;;;;7385331;19;20126;-72
2023/07/07 00:43:40;;;;;;;3.83;2.20;;;19.90;98.90;;;;;;7385326;19;20146;-73
2023/07/07 00:46:07;;;;;;;3.40;2.28;;;20.10;99.10;;;;;;7382741;19;20252;-72
2023/07/07 00:48:33;;;;;;;2.92;2.05;;;20.20;98.80;;;;;;7384617;19;20173;-71
2023/07/07 00:51:08;;;;;;;3.83;2.47;;;20.40;98.70;;;;;;7379233;19;20614;-72
2023/07/07 00:53:37;;;;;;;3.45;2.30;;;20.40;98.80;;;;;;7383407;19;20887;-72
2023/07/07 00:56:11;;;;;;;3.08;2.30;;;20.40;99.10;;;;;;7388003;19;20638;-73
2023/07/07 00:58:41;;;;;;;2.85;2.00;;;20.30;99.50;;;;;;7391388;19;20518;-73
2023/07/07 01:01:12;;;;;;;4.72;2.47;;;20.20;99.70;;;;;;7390667;19;20225;-72
2023/07/07 01:03:54;;;;;;;3.58;1.92;;;20.00;99.90;;;;;;7394015;19;20138;-71
2023/07/07 01:06:26;;;;;;;3.47;2.60;;;20.10;99.90;;;;;;7390587;19;20150;-73
2023/07/07 01:08:58;;;;;;;4.70;2.63;;;20.10;99.90;;;;;;7393548;19;20153;-72
2023/07/07 01:11:24;;;;;;;3.58;2.33;;;19.90;99.90;;;;;;7392567;19;20156;-73
2023/07/07 01:13:50;;;;;;;4.30;2.45;;;20.00;99.90;;;;;;7391130;19;20134;-73
2023/07/07 01:16:22;;;;;;;3.20;2.20;;;20.10;99.90;;;;;;7389692;19;20175;-73
2023/07/07 01:19:03;;;;;;;4.25;2.53;;;19.90;99.90;;;;;;7393122;19;20138;-73
2023/07/07 01:21:36;;;;;;;4.85;2.33;;;19.90;99.90;;;;;;7392997;19;20930;-72
2023/07/07 01:24:24;;;;;;;5.05;2.00;;;19.90;99.90;;;;;;7391667;19;20142;-72
2023/07/07 01:27:02;;;;;;;5.65;2.67;;;20.00;99.90;;;;;;7389947;19;20137;-72
2023/07/07 01:29:57;;;;;;;4.22;2.42;;;20.00;99.90;;;;;;7392902;19;20506;-73
2023/07/07 01:32:27;;;;;;;3.63;2.35;;;20.00;99.90;;;;;;7392363;19;20637;-73
2023/07/07 01:34:58;;;;;;;2.95;2.13;;;19.90;99.90;;;;;;7390576;19;20166;-71
2023/07/07 01:37:24;;;;;;;4.60;3.00;;;19.90;99.90;;;;;;7388012;19;20139;-73
2023/07/07 01:39:51;;;;;;;4.40;2.80;;;20.00;99.90;;;;;;7389534;19;20157;-73
2023/07/07 01:42:50;;;;;;;4.75;2.70;;;19.90;99.90;;;;;;7390904;19;20169;-73
2023/07/07 01:45:29;;;;;;;3.40;2.45;;;19.90;99.90;;;;;;7390048;19;20233;-73
2023/07/07 01:48:34;;;;;;;4.00;2.50;;;19.70;99.90;;;;;;7387354;19;20646;-73
2023/07/07 01:51:04;;;;;;;2.90;2.28;;;19.80;99.90;;;;;;7389442;19;20936;-72
2023/07/07 01:53:33;;;;;;;2.88;2.30;;;19.70;99.90;;;;;;7390021;19;20218;-72
2023/07/07 01:56:00;;;;;;;5.25;2.55;;;19.60;99.90;;;;;;7388744;19;20146;-72
2023/07/07 01:58:30;;;;;;;3.33;2.25;;;19.50;99.90;;;;;;7391663;19;20591;-71
2023/07/07 02:00:57;;;;;;;5.93;2.58;;;19.60;99.90;;;;;;7390046;19;20516;-72
2023/07/07 02:03:23;;;;;;;3.05;2.45;;;19.60;99.90;;;;;;7389825;19;20139;-72
2023/07/07 02:05:49;;;;;;;3.67;2.40;;;19.40;99.90;;;;;;7386186;19;20138;-72
2023/07/07 02:08:15;;;;;;;3.45;2.40;;;19.30;99.90;;;;;;7391763;19;20142;-72
2023/07/07 02:10:41;;;;;;;2.88;2.50;;;19.40;99.90;;;;;;7388096;19;20135;-73
2023/07/07 02:13:07;;;;;;;3.20;1.90;;;19.60;99.90;;;;;;7390216;19;20175;-73
2023/07/07 02:15:32;;;;;;;3.45;2.28;;;19.50;99.90;;;;;;7388900;19;20138;-73
2023/07/07 02:17:58;;;;;;;3.65;2.50;;;19.50;99.90;;;;;;7390273;19;20143;-73
2023/07/07 02:20:24;;;;;;;4.32;2.22;;;19.50;99.90;;;;;;7390833;19;20180;-73
2023/07/07 02:22:53;;;;;;;6.35;2.33;;;19.40;99.90;;;;;;7390358;19;20138;-74
2023/07/07 02:25:18;;;;;;;3.08;2.35;;;19.40;99.90;;;;;;7387328;19;20135;-73
2023/07/07 02:27:44;;;;;;;2.47;1.92;;;19.40;99.90;;;;;;7388999;19;20150;-73
2023/07/07 02:30:10;;;;;;;4.43;2.40;;;19.40;99.90;;;;;;7388569;19;20222;-73
2023/07/07 02:32:36;;;;;;;4.43;2.30;;;19.40;99.90;;;;;;7389959;19;20477;-73
2023/07/07 02:35:04;;;;;;;3.30;2.20;;;19.50;99.90;;;;;;7388032;19;20152;-73
2023/07/07 02:37:39;;;;;;;3.03;2.10;;;19.50;99.90;;;;;;7386845;19;20138;-74
2023/07/07 02:40:05;;;;;;;2.22;1.98;;;19.40;99.90;;;;;;7390162;19;20160;-72
2023/07/07 02:42:31;;;;;;;4.78;2.15;;;19.40;99.90;;;;;;7389671;19;20155;-71
2023/07/07 02:44:57;;;;;;;3.20;2.30;;;19.30;99.90;;;;;;7386286;19;20134;-75
2023/07/07 02:47:23;;;;;;;2.75;1.88;;;19.30;99.90;;;;;;7386178;19;20164;-75
2023/07/07 02:49:48;;;;;;;3.10;2.05;;;19.30;99.90;;;;;;7390913;19;20131;-75
2023/07/07 02:52:14;;;;;;;4.00;2.28;;;19.30;99.90;;;;;;7386808;19;20152;-76
2023/07/07 02:54:40;;;;;;;3.80;1.90;;;19.10;99.90;;;;;;7390136;19;20198;-76
2023/07/07 02:57:06;;;;;;;3.72;2.42;;;19.20;99.90;;;;;;7385517;19;20538;-76
2023/07/07 02:59:32;;;;;;;2.75;2.30;;;18.90;99.90;;;;;;7388295;19;20139;-75
2023/07/07 03:01:57;;;;;;;3.83;2.35;;;18.90;99.90;;;;;;7387100;19;20190;-76
2023/07/07 03:04:24;;;;;;;3.05;2.22;;;19.00;99.90;;;;;;7388021;19;21030;-76
2023/07/07 03:06:51;;;;;;;3.60;2.33;;;19.10;99.90;;;;;;7382172;19;20594;-76
2023/07/07 03:09:16;;;;;;;4.20;2.05;;;19.20;99.90;;;;;;7389246;19;20131;-76
2023/07/07 03:11:42;;;;;;;3.03;2.00;;;19.20;99.90;;;;;;7387983;19;21422;-76
2023/07/07 03:14:08;;;;;;;3.55;2.40;;;19.20;99.90;;;;;;7388151;19;20142;-76
2023/07/07 03:16:33;;;;;;;4.80;2.30;;;19.00;99.90;;;;;;7383866;19;20158;-75
2023/07/07 03:19:06;;;;;;;3.13;2.10;;;18.70;99.90;;;;;;7385712;19;20139;-74
2023/07/07 03:21:32;;;;;;;2.88;2.20;;;18.70;99.90;;;;;;7389470;19;20138;-74
2023/07/07 03:23:58;;;;;;;2.95;2.33;;;18.60;99.90;;;;;;7389440;19;20135;-75
2023/07/07 03:26:26;;;;;;;2.22;1.73;;;18.70;99.90;;;;;;7385928;19;20706;-75
2023/07/07 03:28:53;;;;;;;3.78;2.53;;;18.90;99.90;;;;;;7388498;19;20131;-75
2023/07/07 03:31:24;;;;;;;4.35;2.33;;;19.10;99.90;;;;;;7387852;19;20274;-74
2023/07/07 03:33:54;;;;;;;4.60;2.33;;;19.10;99.90;;;;;;7389256;19;20550;-74
2023/07/07 03:36:24;;;;;;;2.95;2.22;;;19.10;99.90;;;;;;7385326;19;20146;-74
2023/07/07 03:38:50;;;;;;;3.67;2.22;;;19.00;99.90;;;;;;7388005;19;20593;-75
2023/07/07 03:41:21;;;;;;;4.55;2.65;;;19.00;99.90;;;;;;7387553;19;20137;-73
2023/07/07 03:43:47;;;;;;;2.97;2.20;;;18.90;99.90;;;;;;7387039;19;20135;-73
2023/07/07 03:46:15;;;;;;;2.85;2.42;;;18.80;99.90;;;;;;7386083;19;20185;-74
2023/07/07 03:48:41;;;;;;;2.67;1.98;;;18.90;99.90;;;;;;7386536;19;20144;-73
2023/07/07 03:51:07;;;;;;;5.47;2.47;;;18.90;99.90;;;;;;7388419;19;20605;-74
2023/07/07 03:53:33;;;;;;;3.83;2.30;;;18.90;99.90;;;;;;7387397;19;20234;-73
2023/07/07 03:55:59;;;;;;;4.18;2.30;;;18.90;99.90;;;;;;7385433;19;20169;-73
2023/07/07 03:58:26;;;;;;;4.95;2.80;;;18.90;99.90;;;;;;7387880;19;20142;-73
2023/07/07 04:00:53;;;;;;;3.33;2.30;;;18.90;99.90;;;;;;7386731;19;20543;-73
2023/07/07 04:03:20;;;;;;;5.22;2.65;;;18.80;99.90;;;;;;7389326;19;20157;-73
2023/07/07 04:05:47;;;;;;;5.32;2.58;;;18.90;99.90;;;;;;7385315;19;20675;-73
2023/07/07 04:08:15;;;;;;;3.92;2.15;;;18.90;99.90;;;;;;7388703;19;20816;-74
2023/07/07 04:10:41;;;;;;;3.65;2.40;;;18.80;99.90;;;;;;7387418;19;20595;-74
2023/07/07 04:13:07;;;;;;;3.97;2.53;;;18.60;99.90;;;;;;7387056;19;20145;-73
2023/07/07 04:15:33;;;;;;;5.45;2.70;;;18.70;99.90;;;;;;7386575;19;20157;-74
2023/07/07 04:17:59;;;;;;;4.35;2.75;;;18.50;99.90;;;;;;7386315;19;20135;-74
2023/07/07 04:20:25;;;;;;;3.58;2.55;;;18.60;99.90;;;;;;7387956;19;20138;-74
2023/07/07 04:22:51;;;;;;;6.40;2.85;;;18.50;99.90;;;;;;7388181;19;20126;-74
2023/07/07 04:25:17;;;;;;;4.35;2.83;;;18.30;99.90;;;;;;7385329;19;20168;-74
2023/07/07 04:27:44;;;;;;;4.43;2.63;;;18.50;99.90;;;;;;7385568;19;20142;-74
2023/07/07 04:30:11;;;;;;;4.95;2.80;;;18.70;99.90;;;;;;7386034;19;20146;-74
2023/07/07 04:32:39;;;;;;;4.28;2.45;;;18.90;99.90;;;;;;7386960;19;20594;-74
2023/07/07 04:35:05;;;;;;;3.83;2.90;;;18.90;99.90;;;;;;7385195;19;20206;-74
2023/07/07 04:37:31;;;;;;;3.25;2.50;;;19.00;99.90;;;;;;7382418;19;20134;-74
2023/07/07 04:39:57;;;;;;;6.85;3.33;;;18.90;99.90;;;;;;7382985;19;20334;-74
2023/07/07 04:42:23;;;;;;;3.47;2.53;;;18.90;99.90;;;;;;7387396;19;20127;-72
2023/07/07 04:44:49;;;;;;;5.65;3.00;;;18.90;99.90;;;;;;7383581;19;20134;-74
2023/07/07 04:47:14;;;;;;;5.70;2.78;;;19.00;99.90;;;;;;7383031;19;20185;-73
2023/07/07 04:49:40;;;;;;;5.72;3.08;;;19.00;99.90;;;;;;7383521;19;20544;-74
2023/07/07 04:52:06;;;;;;;5.10;2.90;;;19.10;99.90;;;;;;7386529;19;20134;-74
2023/07/07 04:54:32;;;;;;;5.32;3.13;;;19.10;99.90;;;;;;7384825;19;20152;-73
2023/07/07 04:56:57;;;;;;;8.85;2.95;;;19.20;99.90;;;;;;7380748;19;20230;-74
2023/07/07 04:59:23;;;;;;;4.43;2.85;;;19.00;99.90;;;;;;7383812;19;20147;-73
2023/07/07 05:01:49;;;;;;;5.88;3.10;;;19.10;99.90;;;;;;7381200;19;20127;-74
2023/07/07 05:04:17;;;;;;;7.32;3.30;;;19.30;99.90;;;;;;7386515;19;20135;-73
2023/07/07 05:06:43;;;;;;;7.97;3.53;;;19.20;99.90;;;;;;7381589;19;20139;-75
2023/07/07 05:09:10;;;;;;;8.48;4.05;;;19.10;99.90;;;;;;7382716;19;20146;-74
2023/07/07 05:11:36;;;;;;;6.28;3.72;;;19.10;99.90;;;;;;7382651;19;20154;-75
2023/07/07 05:14:03;;;;;;;7.38;4.50;;;19.20;99.90;;;;;;7384867;19;20138;-74
2023/07/07 05:16:37;;;;;;;6.72;3.75;;;19.30;99.90;;;;;;7381026;19;20164;-76
2023/07/07 05:19:03;;;;;;;6.43;3.50;;;19.30;99.90;;;;;;7382941;19;20167;-75
2023/07/07 05:21:29;;;;;;;4.40;2.80;;;19.40;99.90;;;;;;7383790;19;20168;-75
2023/07/07 05:23:55;;;;;;;4.70;2.92;;;19.50;99.90;;;;;;7381862;19;20127;-74
2023/07/07 05:26:23;;;;;;;3.53;3.05;;;19.40;99.90;;;;;;7383173;19;20241;-76
2023/07/07 05:28:51;;;;;;;6.07;3.38;;;19.50;99.90;;;;;;7385821;19;20135;-77
2023/07/07 05:31:17;;;;;;;4.30;3.08;;;19.50;99.90;;;;;;7385012;19;20142;-77
2023/07/07 05:33:43;;;;;;;4.57;2.85;;;19.50;99.90;;;;;;7386156;19;20538;-77
2023/07/07 05:36:08;;;;;;;4.55;2.92;;;19.60;99.90;;;;;;7379941;19;20164;-78
2023/07/07 05:38:35;;;;;;;4.03;2.63;;;19.60;99.90;;;;;;7384285;19;20501;-78
2023/07/07 05:41:01;;;;;;;3.58;2.80;;;19.50;99.90;;;;;;7384080;19;20639;-78
2023/07/07 05:43:27;;;;;;;4.68;2.92;;;19.40;99.90;;;;;;7390173;19;20151;-76
2023/07/07 05:45:57;;;;;;;4.63;2.63;;;19.50;99.90;;;;;;7390792;19;20150;-79
2023/07/07 05:48:24;;;;;;;3.75;2.70;;;19.50;99.90;;;;;;7389238;19;20143;-77
2023/07/07 05:50:51;;;;;;;6.95;2.97;;;19.60;99.90;;;;;;7389181;19;20683;-76
2023/07/07 05:53:18;;;;;;;5.53;2.63;;;19.60;99.90;;;;;;7386977;19;20154;-78
2023/07/07 05:55:46;;;;;;;2.88;2.42;;;19.60;99.90;;;;;;7387934;19;20161;-75
2023/07/07 05:58:14;;;;;;;7.45;2.58;;;19.70;99.90;;;;;;7387566;19;20205;-76
2023/07/07 06:00:40;;;;;;;3.70;2.75;;;19.70;99.90;;;;;;7389408;19;20498;-77
2023/07/07 06:03:06;;;;;;;4.50;2.55;;;19.90;99.90;;;;;;7391268;19;20135;-76
2023/07/07 06:05:33;;;;;;;5.45;3.00;;;19.90;99.90;;;;;;7389566;19;20237;-77
2023/07/07 06:07:59;;;;;;;6.20;2.95;;;20.00;99.90;;;;;;7390504;19;20139;-76
2023/07/07 06:10:28;;;;;;;6.22;3.20;;;20.00;99.90;;;;;;7388096;19;20139;-76
2023/07/07 06:12:54;;;;;;;4.78;2.90;;;20.00;99.90;;;;;;7392454;19;20130;-77
2023/07/07 06:15:19;;;;;;;20.23;10.38;;;20.10;99.90;;;;;;7388747;19;20597;-76
2023/07/07 06:17:45;;;;;;;3.22;2.85;;;20.20;99.90;;;;;;7389407;19;20142;-77
2023/07/07 06:20:13;;;;;;;4.10;2.80;;;21.90;99.90;;;;;;7390612;19;20142;-76
2023/07/07 06:22:38;;;;;;;5.80;3.20;;;23.40;99.90;;;;;;7390818;19;20581;-77
2023/07/07 06:25:05;;;;;;;5.30;2.75;;;23.40;99.90;;;;;;7391057;19;20139;-77
2023/07/07 06:27:31;;;;;;;5.30;3.15;;;25.10;99.90;;;;;;7387742;19;20134;-76
2023/07/07 06:29:57;;;;;;;5.15;2.95;;;27.70;96.10;;;;;;7388068;19;20158;-76
2023/07/07 06:32:23;;;;;;;5.63;3.13;;;29.60;91.80;;;;;;7388393;19;20142;-76
2023/07/07 06:34:49;;;;;;;6.03;2.80;;;31.00;86.80;;;;;;7391755;19;20149;-77
2023/07/07 06:37:16;;;;;;;4.65;2.70;;;31.20;82.90;;;;;;7387998;19;20599;-76
2023/07/07 06:39:42;;;;;;;6.30;2.95;;;31.40;81.40;;;;;;7389570;19;20141;-76
2023/07/07 06:42:09;;;;;;;6.03;3.22;;;32.10;78.90;;;;;;7389329;19;20143;-76
2023/07/07 06:44:38;;;;;;;4.80;2.85;;;33.00;75.60;;;;;;7389748;19;20135;-76
2023/07/07 06:47:05;;;;;;;3.63;2.95;;;33.40;73.50;;;;;;7388596;19;20151;-77
2023/07/07 06:49:31;;;;;;;6.00;3.50;;;33.80;71.60;;;;;;7386743;19;20135;-77
2023/07/07 06:51:57;;;;;;;3.80;2.90;;;33.80;70.20;;;;;;7379017;19;20169;-77
2023/07/07 06:54:23;;;;;;;5.80;3.25;;;33.40;70.20;;;;;;7386201;19;20149;-77
2023/07/07 06:56:49;;;;;;;6.72;3.40;;;33.50;70.10;;;;;;7385825;19;20143;-78
2023/07/07 06:59:14;;;;;;;6.57;3.50;;;33.60;69.50;;;;;;7386928;19;20139;-77
2023/07/07 07:01:40;;;;;;;3.78;2.83;;;33.50;69.00;;;;;;7383428;19;20143;-78
2023/07/07 07:04:06;;;;;;;10.48;3.63;;;32.90;69.70;;;;;;7384176;19;20177;-79
2023/07/07 07:06:32;;;;;;;4.40;2.75;;;32.60;70.40;;;;;;7386359;19;20220;-77
2023/07/07 07:08:57;;;;;;;6.28;3.08;;;31.50;72.10;;;;;;7386135;19;20134;-76
2023/07/07 07:11:23;;;;;;;5.00;2.72;;;31.00;73.30;;;;;;7387519;19;20225;-76
2023/07/07 07:13:50;;;;;;;5.35;3.17;;;29.50;75.90;;;;;;7387731;19;20153;-77
2023/07/07 07:16:17;;;;;;;5.28;3.40;;;30.50;75.10;;;;;;7387908;19;20217;-76
2023/07/07 07:18:42;;;;;;;3.55;2.95;;;30.60;74.50;;;;;;7387212;19;20654;-76
2023/07/07 07:21:08;;;;;;;5.03;3.42;;;30.60;74.90;;;;;;7386847;19;20151;-77
2023/07/07 07:23:34;;;;;;;6.32;3.78;;;31.10;74.20;;;;;;7388758;19;20143;-77
2023/07/07 07:25:59;;;;;;;7.25;4.70;;;31.60;73.40;;;;;;7386451;19;20185;-78
2023/07/07 07:28:25;;;;;;;8.23;3.63;;;31.60;73.80;;;;;;7388417;19;20142;-77
2023/07/07 07:30:51;;;;;;;4.43;3.03;;;31.60;72.80;;;;;;7386744;19;20135;-79
2023/07/07 07:33:20;;;;;;;5.88;3.33;;;31.50;72.80;;;;;;7389383;19;20165;-76
2023/07/07 07:35:47;;;;;;;4.65;2.90;;;30.60;74.10;;;;;;7384158;19;20162;-79
2023/07/07 07:38:17;;;;;;;5.03;3.25;;;29.50;76.30;;;;;;7386691;19;20168;-78
2023/07/07 07:40:43;;;;;;;5.50;3.05;;;29.00;77.40;;;;;;7386577;19;20157;-79
2023/07/07 07:43:09;;;;;;;6.88;3.25;;;28.80;78.40;;;;;;7385681;19;20146;-78
2023/07/07 07:45:35;;;;;;;3.67;3.17;;;28.50;79.30;;;;;;7385374;19;20138;-79
2023/07/07 07:48:02;;;;;;;5.63;3.08;;;28.10;80.20;;;;;;7383958;19;20464;-77
2023/07/07 07:50:28;;;;;;;4.78;3.25;;;28.00;81.00;;;;;;7388357;19;20154;-79
2023/07/07 07:52:55;;;;;;;4.38;2.85;;;27.80;81.40;;;;;;7384893;19;20591;-75
2023/07/07 07:55:21;;;;;;;3.90;2.70;;;28.00;81.20;;;;;;7383437;19;20150;-75
2023/07/07 07:57:47;;;;;;;3.92;3.20;;;28.40;80.90;;;;;;7386249;19;20146;-76
2023/07/07 08:00:14;;;;;;;6.68;3.30;;;28.70;79.80;;;;;;7388123;19;20145;-76
2023/07/07 08:02:42;;;;;;;5.47;3.22;;;28.90;79.30;;;;;;7390782;19;20135;-76
2023/07/07 08:05:08;;;;;;;4.13;2.78;;;28.80;79.10;;;;;;7387745;19;20587;-75
2023/07/07 08:07:34;;;;;;;5.25;3.38;;;28.90;79.20;;;;;;7387231;19;20273;-75
2023/07/07 08:10:00;;;;;;;4.72;2.78;;;29.00;78.70;;;;;;7386781;19;20139;-76
2023/07/07 08:12:26;;;;;;;4.00;2.88;;;29.10;78.30;;;;;;7386254;19;20145;-77
2023/07/07 08:14:51;;;;;;;3.85;2.88;;;29.20;78.20;;;;;;7385419;19;20134;-76
2023/07/07 08:17:17;;;;;;;4.72;3.05;;;29.20;78.40;;;;;;7383900;19;20131;-77
2023/07/07 08:19:46;;;;;;;4.60;3.20;;;29.20;78.10;;;;;;7385294;19;20488;-77
2023/07/07 08:22:15;;;;;;;6.03;3.38;;;29.40;77.50;;;;;;7386807;19;20145;-77
2023/07/07 08:24:47;;;;;;;4.13;3.15;;;29.30;78.40;;;;;;7385348;19;20149;-76
2023/07/07 08:27:13;;;;;;;3.25;2.60;;;29.60;77.40;;;;;;7383673;19;20146;-79
2023/07/07 08:29:40;;;;;;;4.35;3.25;;;29.70;77.30;;;;;;7384127;19;20149;-78
2023/07/07 08:32:08;;;;;;;4.22;2.88;;;29.60;77.30;;;;;;7385100;19;20139;-75
2023/07/07 08:34:34;;;;;;;6.72;3.10;;;29.40;77.70;;;;;;7384618;19;20127;-75
2023/07/07 08:37:00;;;;;;;3.80;2.53;;;29.40;77.80;;;;;;7383591;19;20139;-75
2023/07/07 08:39:28;;;;;;;4.50;3.03;;;29.60;77.80;;;;;;7385256;19;20135;-76
2023/07/07 08:41:59;;;;;;;5.15;3.30;;;29.70;77.50;;;;;;7386823;19;20442;-77
2023/07/07 08:44:27;;;;;;;6.10;3.58;;;29.60;77.50;;;;;;7387047;19;20769;-76
2023/07/07 08:47:20;;;;;;;4.28;3.33;;;29.70;77.80;;;;;;7382828;19;20190;-76
2023/07/07 08:50:05;;;;;;;5.28;3.78;;;29.70;77.60;;;;;;7387713;19;20883;-75
2023/07/07 08:52:39;;;;;;;3.50;2.60;;;29.30;78.70;;;;;;7387297;19;20337;-77
2023/07/07 08:55:08;;;;;;;6.10;3.78;;;29.20;78.90;;;;;;7391369;19;20175;-77
2023/07/07 08:57:48;;;;;;;4.47;3.33;;;29.30;79.50;;;;;;7383240;19;20127;-77
2023/07/07 09:00:41;;;;;;;4.60;3.13;;;29.50;78.80;;;;;;7385979;19;20141;-77
2023/07/07 09:03:19;;;;;;;6.20;3.40;;;29.40;78.60;;;;;;7385766;19;20165;-77
2023/07/07 09:06:19;;;;;;;4.18;3.08;;;29.30;80.10;;;;;;7383797;19;20183;-77
2023/07/07 09:08:53;;;;;;;5.05;3.13;;;29.50;79.60;;;;;;7386061;19;20156;-77
2023/07/07 09:11:37;;;;;;;3.60;3.25;;;29.60;78.70;;;;;;7385856;19;20206;-76
2023/07/07 09:14:05;;;;;;;5.72;3.63;;;29.50;78.20;;;;;;7384816;19;20910;-79
2023/07/07 09:16:37;;;;;;;7.07;6.05;;;29.40;78.00;;;;;;7384804;19;20138;-79
2023/07/07 09:19:20;;;;;;;4.53;3.20;;;29.00;79.20;;;;;;7391926;19;20145;-78
2023/07/07 09:21:47;;;;;;;5.32;3.70;;;28.90;79.20;;;;;;7392407;19;20473;-79
2023/07/07 09:24:42;;;;;;;4.70;3.55;;;29.10;78.90;;;;;;7390805;19;20142;-78
2023/07/07 09:27:13;;;;;;;5.28;3.10;;;29.10;76.90;;;;;;7387396;19;20180;-78
2023/07/07 09:29:39;;;;;;;4.00;3.35;;;29.00;76.40;;;;;;7392229;19;20143;-79
2023/07/07 09:32:05;;;;;;;5.13;3.15;;;28.90;75.30;;;;;;7388141;19;20170;-79
2023/07/07 09:34:33;;;;;;;5.38;3.53;;;29.10;74.40;;;;;;7391446;19;20614;-79
2023/07/07 09:37:50;;;;;;;6.15;3.75;;;29.20;74.00;;;;;;7388104;19;20141;-78
2023/07/07 09:40:20;;;;;;;7.38;4.18;;;29.20;73.50;;;;;;7386387;19;20174;-76
2023/07/07 09:43:07;;;;;;;5.30;4.00;;;28.80;72.20;;;;;;7389234;19;20135;-78
2023/07/07 09:45:48;;;;;;;5.57;3.60;;;28.60;72.90;;;;;;7388836;19;20275;-79
2023/07/07 09:48:48;;;;;;;5.00;3.78;;;28.80;72.80;;;;;;7387865;19;20160;-77
2023/07/07 09:51:44;;;;;;;5.75;4.50;;;28.70;72.30;;;;;;7388480;19;20188;-77
2023/07/07 09:54:13;;;;;;;7.28;4.75;;;28.80;71.10;;;;;;7389279;19;20142;-78
2023/07/07 09:57:01;;;;;;;5.15;3.47;;;29.20;68.10;;;;;;7387075;19;20150;-78
2023/07/07 09:59:32;;;;;;;5.72;3.85;;;29.40;68.90;;;;;;7391118;19;20142;-79
2023/07/07 10:01:59;;;;;;;6.53;3.80;;;29.30;68.00;;;;;;7390846;19;20134;-79
2023/07/07 10:04:28;;;;;;;6.45;4.28;;;28.90;68.90;;;;;;7390260;19;20278;-76
2023/07/07 10:07:05;;;;;;;5.95;3.58;;;28.80;70.20;;;;;;7387242;19;20226;-77
2023/07/07 10:09:31;;;;;;;5.53;3.70;;;28.80;71.80;;;;;;7389192;19;20146;-77
2023/07/07 10:11:58;;;;;;;5.75;4.05;;;28.90;71.50;;;;;;7390285;19;20135;-76
2023/07/07 10:14:28;;;;;;;4.53;3.75;;;29.10;72.00;;;;;;7389342;19;20208;-78
2023/07/07 10:17:25;;;;;;;4.75;4.03;;;29.30;70.60;;;;;;7387486;19;20495;-77
2023/07/07 10:19:56;;;;;;;6.32;4.30;;;29.10;71.00;;;;;;7390414;19;20933;-76
2023/07/07 10:22:22;;;;;;;5.30;4.20;;;29.10;70.40;;;;;;7388579;19;20142;-77
2023/07/07 10:24:48;;;;;;;6.18;3.55;;;29.20;69.00;;;;;;7390172;19;20157;-75
2023/07/07 10:27:23;;;;;;;6.57;4.15;;;29.20;71.70;;;;;;7387917;19;20134;-77
2023/07/07 10:29:49;;;;;;;6.57;4.70;;;29.20;70.60;;;;;;7389056;19;20598;-80
2023/07/07 10:32:20;;;;;;;4.88;3.97;;;29.00;69.50;;;;;;7389313;19;20162;-79
2023/07/07 10:34:48;;;;;;;5.47;4.00;;;28.90;70.90;;;;;;7389444;19;20150;-78
2023/07/07 10:37:28;;;;;;;8.18;5.13;;;29.00;71.10;;;;;;7384854;19;20171;-79
2023/07/07 10:39:59;;;;;;;8.98;5.97;;;29.10;67.40;;;;;;7387112;19;20150;-77
2023/07/07 10:42:26;;;;;;;8.43;7.20;;;29.10;66.40;;;;;;7388075;19;20138;-76
2023/07/07 10:44:54;;;;;;;11.13;7.88;;;29.10;66.50;;;;;;7389551;19;20131;-76
2023/07/07 10:47:31;;;;;;;7.43;5.57;;;29.30;67.00;;;;;;7385441;19;20261;-76
2023/07/07 10:49:59;;;;;;;8.40;5.47;;;29.30;66.50;;;;;;7388223;19;20145;-76
2023/07/07 10:52:55;;;;;;;6.60;5.28;;;29.20;66.70;;;;;;7387858;19;20161;-77
2023/07/07 10:55:33;;;;;;;7.90;6.28;;;29.10;66.80;;;;;;7389050;19;20138;-77
2023/07/07 10:58:22;;;;;;;9.23;5.93;;;29.20;66.60;;;;;;7389341;19;20470;-77
2023/07/07 11:01:07;;;;;;;9.50;6.30;;;29.20;65.70;;;;;;7385140;19;20725;-76
2023/07/07 11:03:58;;;;;;;8.85;5.95;;;29.20;65.20;;;;;;7388242;19;20644;-77
2023/07/07 11:06:31;;;;;;;7.65;5.38;;;29.20;65.40;;;;;;7387773;19;20150;-78
2023/07/07 11:09:08;;;;;;;6.53;4.82;;;29.30;67.30;;;;;;7388509;19;20445;-77
2023/07/07 11:12:13;;;;;;;11.48;7.10;;;29.40;67.60;;;;;;7388348;19;20146;-78
2023/07/07 11:15:04;;;;;;;8.27;5.90;;;29.50;67.20;;;;;;7387959;19;20297;-81
2023/07/07 11:18:00;;;;;;;7.47;5.53;;;29.50;65.80;;;;;;7386101;19;20201;-80
2023/07/07 11:20:51;;;;;;;7.72;5.13;;;29.20;65.90;;;;;;7386699;19;20267;-80
2023/07/07 11:23:49;;;;;;;6.97;5.10;;;29.10;67.50;;;;;;7386604;19;20610;-79
2023/07/07 11:26:34;;;;;;;7.88;5.65;;;29.50;64.70;;;;;;7386450;19;20162;-79
2023/07/07 11:29:05;;;;;;;10.43;5.82;;;29.80;64.20;;;;;;7386825;19;20134;-78
2023/07/07 11:31:46;;;;;;;8.82;5.28;;;29.90;63.40;;;;;;7387130;19;20149;-77
2023/07/07 11:34:50;;;;;;;8.82;6.18;;;29.90;64.20;;;;;;7389152;19;20922;-79
2023/07/07 11:37:43;;;;;;;12.90;6.63;;;29.90;64.00;;;;;;7385435;19;20131;-78
2023/07/07 11:40:21;;;;;;;9.32;5.47;;;29.90;62.90;;;;;;7387083;19;20135;-78
2023/07/07 11:42:50;;;;;;;8.20;4.72;;;29.70;62.60;;;;;;7387741;19;20145;-77
2023/07/07 11:45:24;;;;;;;8.27;5.75;;;29.60;63.10;;;;;;7386070;19;20139;-79
2023/07/07 11:48:16;;;;;;;9.57;6.00;;;29.60;62.60;;;;;;7384150;19;20204;-79
2023/07/07 11:50:57;;;;;;;10.60;5.32;;;29.60;62.60;;;;;;7389147;19;20149;-79
2023/07/07 11:53:54;;;;;;;7.32;5.13;;;29.60;62.90;;;;;;7387292;19;20154;-78
2023/07/07 11:56:31;;;;;;;8.40;5.90;;;29.70;62.30;;;;;;7386650;19;20147;-77
2023/07/07 11:59:22;;;;;;;6.28;4.93;;;29.90;59.20;;;;;;7387550;19;20134;-77
2023/07/07 12:01:52;;;;;;;8.50;5.35;;;30.00;57.90;;;;;;7387304;19;20161;-78
2023/07/07 12:04:34;;;;;;;9.73;5.40;;;30.10;56.10;;;;;;7386540;19;20158;-76
2023/07/07 12:07:10;;;;;;;7.20;5.28;;;30.00;56.40;;;;;;7382924;19;20585;-77
2023/07/07 12:10:12;;;;;;;8.38;6.05;;;30.10;58.00;;;;;;7387662;19;20138;-78
2023/07/07 12:12:46;;;;;;;9.27;5.38;;;30.20;58.00;;;;;;7384748;19;20160;-77
2023/07/07 12:15:27;;;;;;;7.15;5.18;;;30.30;57.40;;;;;;7387142;19;20142;-78
2023/07/07 12:18:13;;;;;;;10.82;6.25;;;30.20;57.70;;;;;;7388515;19;20473;-77
2023/07/07 12:21:10;;;;;;;8.30;5.63;;;30.20;56.20;;;;;;7387532;19;20157;-79
2023/07/07 12:23:39;;;;;;;6.55;4.90;;;30.10;56.40;;;;;;7386915;19;20138;-78
2023/07/07 12:26:07;;;;;;;8.95;5.38;;;30.10;56.10;;;;;;7385106;19;20591;-78
2023/07/07 12:28:33;;;;;;;12.05;7.13;;;30.20;56.80;;;;;;7387972;19;20503;-79
2023/07/07 12:30:59;;;;;;;7.93;5.47;;;30.20;55.80;;;;;;7385582;19;20497;-77
2023/07/07 12:33:25;;;;;;;12.65;7.07;;;30.20;55.50;;;;;;7384871;19;20494;-80
2023/07/07 12:35:58;;;;;;;11.48;6.00;;;30.40;55.60;;;;;;7382329;19;20135;-78
2023/07/07 12:38:33;;;;;;;8.15;5.30;;;30.20;56.80;;;;;;7383969;19;20171;-78
2023/07/07 12:41:01;;;;;;;7.57;5.45;;;30.20;57.40;;;;;;7386102;19;20153;-78
2023/07/07 12:43:36;;;;;;;7.28;5.10;;;30.10;57.40;;;;;;7385886;19;20161;-77
2023/07/07 12:46:03;;;;;;;9.80;5.35;;;30.10;57.50;;;;;;7382931;19;20178;-79
2023/07/07 12:48:29;;;;;;;7.70;6.00;;;30.20;57.80;;;;;;7384149;19;20484;-79
2023/07/07 12:51:01;;;;;;;7.82;5.70;;;30.30;57.60;;;;;;7394175;19;20145;-80
2023/07/07 12:53:35;;;;;;;9.60;5.85;;;30.20;57.00;;;;;;7393217;19;20159;-78
2023/07/07 12:56:07;;;;;;;8.00;5.07;;;30.20;57.00;;;;;;7396272;19;20161;-79
2023/07/07 12:58:39;;;;;;;6.57;5.25;;;30.40;57.30;;;;;;7404865;19;20135;-79
2023/07/07 13:01:13;;;;;;;6.35;5.30;;;30.60;56.50;;;;;;7400966;19;20127;-79
2023/07/07 13:04:05;;;;;;;7.55;5.55;;;30.50;55.40;;;;;;7398580;19;20156;-79
2023/07/07 13:06:30;;;;;;;7.20;5.53;;;30.60;56.10;;;;;;7400274;19;20138;-78
2023/07/07 13:09:11;;;;;;;9.02;5.30;;;30.60;56.30;;;;;;7391899;19;20142;-79
2023/07/07 13:11:41;;;;;;;6.90;5.15;;;30.60;56.10;;;;;;7392781;19;20154;-80